Station info - map view · info · telemetry · weather · raw · status · beacons · messages · bulletins · browse · moving · my account
Callsign, ship name or locator: Clear       
It is possible to search using wildcards (*?) after a prefix. Example: OH*
APRS station KC9KTB-9 - show graphs
Map loading...
Comment: aprsdroid/uv5r
Location: 37°10.23' N 122°11.39' W - locator CM87VE70FW - show map - static map
4.8 miles Northwest bearing 310° from Boulder Creek, Santa Cruz County, California, United States [?]
6.4 miles Northwest bearing 314° from Brookdale, Santa Cruz County, California, United States
20.0 miles Southwest bearing 234° from San Jose, Santa Clara County, California, United States
43.6 miles South bearing 163° from San Francisco, San Francisco County, California, United States
Last position: 2017-04-20 02:42:01 EDT (5d 13h30m ago)
2017-04-19 23:42:01 PDT local time at Boulder Creek, United States [?]
Altitude: 1538 ft
Device: Open Source: APRSdroid (app, Android)
Last path: KC9KTB-9>APDR13 via WIDE1-1,qAR,AF6SE (good)
Positions stored: 6492
Stations near current position of KC9KTB-9 - show more
callsign distance last heard - EDT      callsign distance last heard - EDT
KF6GPE2.4 miles 80°2017-04-25 16:04:05 AF6SE2.5 miles 85°2017-04-25 16:04:44
CW18444.1 miles 121°2017-04-24 23:07:21 AC6SL-44.6 miles 125°2017-04-25 16:00:40
AC6SL-84.6 miles 125°2017-04-02 20:35:43 AC6SL-94.7 miles 125°2017-04-24 21:36:53
EW68004.7 miles 32°2017-04-25 16:11:11 CW73955.2 miles 133°2017-04-25 16:01:06
DW38225.5 miles 134°2017-04-25 16:08:50 AF6SE-25.6 miles 263°2017-03-29 12:53:26
W6TUW-35.7 miles 151°2017-04-25 16:12:43 CW70525.8 miles 133°2017-04-25 16:02:55
DW60616.0 miles 132°2017-04-25 15:22:08 EW15766.1 miles 129°2017-04-25 16:09:21
W6JWS-36.4 miles 55°2017-04-25 15:57:05 EW82297.4 miles 129°2017-04-25 16:04:43
FW05838.1 miles 140°2017-04-25 16:10:32 FW03338.5 miles 27°2017-04-25 16:10:36
CW92348.7 miles 121°2017-04-25 16:12:37 KI6URE9.3 miles 63°2017-04-25 16:02:16
Stations which heard KC9KTB-9 directly on radio –
callsign pkts first heard - EDT last heard longest (tx => rx) longest at - EDT
W6BXN-3 1 2017-04-08 12:41:24 2017-04-08 12:41:24 CM97ER > CM97XM 86.7 miles 99° 2017-04-08 12:41:24
WR6ABD 39 2017-04-08 11:37:29 2017-04-20 00:42:02 CM97AL > CM97BC 26.9 miles 171° 2017-04-08 12:11:18
W6CX-3 11 2017-04-08 14:50:53 2017-04-08 19:53:26 CM98IA > CM97BV 35.3 miles 256° 2017-04-08 17:14:04
KE6AFE 13 2017-04-10 19:46:47 2017-04-19 20:23:11 CM96AX > CM86XX 2.8 miles 263° 2017-04-14 10:36:36
K6LY-3 20 2017-04-08 11:38:49 2017-04-19 14:01:40 CM87XE > CM96AO 40.7 miles 170° 2017-04-09 00:19:26
WA6ODP-3 12 2017-04-08 12:22:52 2017-04-08 19:47:48 CM97DR > CM97AP 12.7 miles 254° 2017-04-08 12:37:40
W6YX-5 6 2017-04-08 12:14:10 2017-04-08 20:46:06 CM97BN > CM87WJ 17.5 miles 232° 2017-04-08 12:16:56
WB6TMS-3 1 2017-04-08 20:05:35 2017-04-08 20:05:35 CM97BL > CM87LX 69.6 miles 301° 2017-04-08 20:05:35
N6ZX-3 19 2017-04-08 12:06:06 2017-04-08 23:56:09 CM97BG > CM87UK 27.4 miles 298° 2017-04-08 23:56:09
AC6SL-4 162 2017-04-08 11:14:14 2017-04-19 20:51:09 CM87XB > CM87WD 8.0 miles 319° 2017-04-13 09:52:03
WA5ZNU-10 1 2017-04-08 12:15:56 2017-04-08 12:15:56 CM97AN > CM87WK 13.3 miles 233° 2017-04-08 12:15:56
AF6SE 425 2017-04-08 11:14:15 2017-04-20 02:42:01 CM87XE > CM87WE 5.1 miles 272° 2017-04-08 11:36:11
KE6AFE-2 54 2017-04-09 00:15:13 2017-04-18 20:24:25 CM87XE > CM86XX 12.8 miles 175° 2017-04-09 00:17:24
KJ6LEO 2 2017-04-08 12:05:06 2017-04-08 20:11:48 CM97AK > CM97BK 3.2 miles 102° 2017-04-08 20:11:48
K7FED-1 11 2017-04-08 12:47:49 2017-04-08 17:45:50 CM98IA > CM97FP 29.3 miles 209° 2017-04-08 17:13:50
KI6PAU-3 1 2017-04-14 20:26:33 2017-04-14 20:26:33 CM87XB > CM96BH 52.4 miles 170° 2017-04-14 20:26:33
K6SJC-1 27 2017-04-08 12:40:54 2017-04-08 17:49:12 CM97ER > CM97JV 25.4 miles 61° 2017-04-08 17:49:12
ALDER 2 2017-04-08 17:41:59 2017-04-08 17:46:14 CM97ER > CM98TR 97.0 miles 44° 2017-04-08 17:46:14
W6TUW-3 124 2017-04-08 11:25:19 2017-04-19 20:41:28 CM96AX > CM87WC 12.7 miles 310° 2017-04-12 20:16:34
K6BJ-3 442 2017-04-08 11:24:19 2017-04-19 20:35:48 CM87VE > CM96AX 16.2 miles 139° 2017-04-18 08:15:49
N6ACK-11 4 2017-04-08 11:50:22 2017-04-08 20:51:29 CM97AE > CM97AH 9.5 miles 11° 2017-04-08 11:50:22
K6RPT 17 2017-04-08 12:18:46 2017-04-09 00:05:20 CM97BN > CM97BG 22.3 miles 181° 2017-04-08 12:18:46
W6IA 34 2017-04-08 11:42:18 2017-04-19 09:53:33 CM87VE > CM97BG 16.9 miles 65° 2017-04-19 09:53:33
KK6ZL-10 6 2017-04-08 12:26:28 2017-04-08 19:51:11 CM97AQ > CM97BQ 2.3 miles 131° 2017-04-08 19:45:49
W6SRR-3 99 2017-04-08 12:03:05 2017-04-09 00:07:51 CM98IA > CM97AO 45.5 miles 233° 2017-04-08 17:15:33
NZ6J-13 1 2017-04-08 20:43:06 2017-04-08 20:43:06 CM87XJ > CM87RW 48.8 miles 321° 2017-04-08 20:43:06
K6MJW-11 2 2017-04-08 12:08:33 2017-04-08 12:12:39 CM97AL > CM97AM 1.5 miles 11° 2017-04-08 12:08:33

Only position packets which were originated by the station are shown here. The range statistics show some extra long hops, because some digipeaters do not correctly add themselves to the digipeater path. Please check the raw packets.
About this site
This page shows real-time information collected from the Automatic Position Reporting System Internet network (APRS-IS). APRS is used by amateur (ham) radio operators to transmit real-time position information, weather data, telemetry and messages over the radio. A vehicle equipped with a GPS receiver, a VHF transmitter or HF transceiver and a small computer device called a tracker transmits it's location, speed and course in a small data packet, which is then received by a nearby iGate receiving site which forwards the packet on the Internet. Systems connected to the Internet can send information on the APRS-IS without a radio transmitter, or collect and display information transmitted anywhere in the world.
FAQ · Blog · Discussion group · Linking to aprs.fi · AIS sites · Service status · Database statistics · Advertising on aprs.fi · Technical details · API · Change log · Planned changes · Credits and thanks · Terms Of Service · iPhone/iPad APRS